createdAt,value
2018-05-16T00:01:03.253Z,12.60
2018-05-16T00:02:04.219Z,12.90
2018-05-16T00:03:57.612Z,13.50
2018-05-16T00:04:57.109Z,14.80
2018-05-16T00:06:50.446Z,10.30
2018-05-16T00:07:49.618Z,11.70
2018-05-16T00:09:43.335Z,12.40
2018-05-16T00:10:43.296Z,14.30
2018-05-16T00:12:37.661Z,14.00
2018-05-16T00:13:37.193Z,11.50
2018-05-16T00:15:30.788Z,12.70
2018-05-16T00:16:30.582Z,11.30
2018-05-16T00:18:23.502Z,17.40
2018-05-16T00:19:23.395Z,13.00
2018-05-16T00:21:17.960Z,17.00
2018-05-16T00:22:17.376Z,13.60
2018-05-16T00:24:10.814Z,15.60
2018-05-16T00:25:10.720Z,17.80
2018-05-16T00:27:04.645Z,15.60
2018-05-16T00:28:03.160Z,12.30
2018-05-16T00:29:56.926Z,17.50
2018-05-16T00:30:58.369Z,19.00
2018-05-16T00:32:51.067Z,13.80
2018-05-16T00:33:50.857Z,15.00
2018-05-16T00:35:44.261Z,16.70
2018-05-16T00:36:43.396Z,18.30
2018-05-16T00:38:37.987Z,19.00
2018-05-16T00:39:36.813Z,19.20
2018-05-16T00:41:31.018Z,18.60
2018-05-16T00:42:32.155Z,17.10
2018-05-16T00:44:24.778Z,14.60
2018-05-16T00:45:24.756Z,15.60
2018-05-16T00:47:18.311Z,17.50
2018-05-16T00:48:18.106Z,17.70
2018-05-16T00:50:11.106Z,17.20
2018-05-16T00:51:10.265Z,16.70
2018-05-16T00:53:03.970Z,16.00
2018-05-16T00:54:04.347Z,17.90
2018-05-16T00:55:58.244Z,17.80
2018-05-16T00:56:56.960Z,18.90
2018-05-16T00:58:52.264Z,16.80
2018-05-16T00:59:51.648Z,16.10
2018-05-16T01:01:45.144Z,19.70
2018-05-16T01:02:44.146Z,17.80
2018-05-16T01:04:37.996Z,19.60
2018-05-16T01:05:38.412Z,16.90
2018-05-16T01:07:31.808Z,16.90
2018-05-16T01:08:32.425Z,20.30
2018-05-16T01:10:24.207Z,18.30
2018-05-16T01:11:24.213Z,19.50
2018-05-16T01:13:18.572Z,18.40
2018-05-16T01:14:18.625Z,16.80
2018-05-16T01:16:12.563Z,19.00
2018-05-16T01:17:10.717Z,17.50
2018-05-16T01:19:05.325Z,18.00
2018-05-16T01:20:05.260Z,19.10
2018-05-16T01:21:58.850Z,19.00
2018-05-16T01:22:59.147Z,19.60
2018-05-16T01:24:52.170Z,17.30
2018-05-16T01:25:51.569Z,15.70
2018-05-16T01:27:45.918Z,17.20
2018-05-16T01:28:44.366Z,16.90
2018-05-16T01:30:37.911Z,14.50
2018-05-16T01:31:37.638Z,15.80
2018-05-16T01:33:32.291Z,13.50
2018-05-16T01:34:32.246Z,13.20
2018-05-16T01:36:26.227Z,15.30
2018-05-16T01:37:25.120Z,15.30
2018-05-16T01:39:18.966Z,14.40
2018-05-16T01:40:19.438Z,14.10
2018-05-16T01:42:13.271Z,11.80
2018-05-16T01:43:12.854Z,12.80
2018-05-16T01:45:04.967Z,13.90
2018-05-16T01:46:05.239Z,12.50
2018-05-16T01:47:58.689Z,14.30
2018-05-16T01:48:59.085Z,12.70
2018-05-16T01:50:52.026Z,12.30
2018-05-16T01:51:52.445Z,11.70
2018-05-16T01:53:45.812Z,12.00
2018-05-16T01:54:46.466Z,13.00
2018-05-16T01:56:39.188Z,11.60
2018-05-16T01:57:39.667Z,13.60
2018-05-16T01:59:33.774Z,12.20
2018-05-16T02:00:33.739Z,14.70
2018-05-16T02:02:26.257Z,13.40
2018-05-16T02:03:26.084Z,11.30
2018-05-16T02:05:19.379Z,11.90
2018-05-16T02:06:18.898Z,14.90
2018-05-16T02:08:12.145Z,11.60
2018-05-16T02:09:12.692Z,12.80
2018-05-16T02:11:06.461Z,14.90
2018-05-16T02:12:04.019Z,14.00
2018-05-16T02:13:58.381Z,15.70
2018-05-16T02:14:57.923Z,15.10
2018-05-16T02:16:51.340Z,13.50
2018-05-16T02:17:51.778Z,11.70
2018-05-16T02:19:44.184Z,12.40
2018-05-16T02:20:45.113Z,12.80
2018-05-16T02:22:38.983Z,13.20
2018-05-16T02:23:39.286Z,12.70
2018-05-16T02:25:31.589Z,15.10
2018-05-16T02:26:31.993Z,13.00
2018-05-16T02:28:25.511Z,12.80
2018-05-16T02:29:25.790Z,14.80
2018-05-16T02:31:18.282Z,15.40
2018-05-16T02:32:17.381Z,13.90
2018-05-16T02:34:13.108Z,12.60
2018-05-16T02:35:11.907Z,13.20
2018-05-16T02:37:05.645Z,15.60
2018-05-16T02:38:05.502Z,15.00
2018-05-16T02:40:00.176Z,17.30
2018-05-16T02:40:59.939Z,13.20
2018-05-16T02:42:53.455Z,13.50
2018-05-16T02:43:53.302Z,14.40
2018-05-16T02:45:46.850Z,13.80
2018-05-16T02:46:46.042Z,15.10
2018-05-16T02:48:39.121Z,12.80
2018-05-16T02:49:40.095Z,14.20
2018-05-16T02:51:33.027Z,15.50
2018-05-16T02:52:32.463Z,14.50
2018-05-16T02:54:26.364Z,15.80
2018-05-16T02:55:27.145Z,14.10
2018-05-16T02:57:21.352Z,14.50
2018-05-16T02:58:19.860Z,12.00
2018-05-16T03:00:13.069Z,15.50
2018-05-16T03:01:13.625Z,16.10
2018-05-16T03:03:06.713Z,13.20
2018-05-16T03:04:07.171Z,15.40
2018-05-16T03:06:00.602Z,13.70
2018-05-16T03:07:00.676Z,15.00
2018-05-16T03:08:53.756Z,15.00
2018-05-16T03:09:53.758Z,15.50
2018-05-16T03:11:47.498Z,13.10
2018-05-16T03:12:47.146Z,13.50
2018-05-16T03:14:41.508Z,13.30
2018-05-16T03:15:40.712Z,13.20
2018-05-16T03:17:33.459Z,15.70
2018-05-16T03:18:33.377Z,13.80
2018-05-16T03:20:26.487Z,15.20
2018-05-16T03:21:26.962Z,13.60
2018-05-16T03:23:19.308Z,14.80
2018-05-16T03:24:18.492Z,14.80
2018-05-16T03:26:13.600Z,20.00
2018-05-16T03:27:12.461Z,15.10
2018-05-16T03:29:06.044Z,14.30
2018-05-16T03:30:06.471Z,14.70
2018-05-16T03:32:00.585Z,15.50
2018-05-16T03:33:00.335Z,14.20
2018-05-16T03:34:54.901Z,20.50
2018-05-16T03:35:53.746Z,13.90
2018-05-16T03:37:47.022Z,17.70
2018-05-16T03:38:47.462Z,17.00
2018-05-16T03:40:40.787Z,15.30
2018-05-16T03:41:40.812Z,15.60
2018-05-16T03:43:33.228Z,17.10
2018-05-16T03:44:34.640Z,15.90
2018-05-16T03:46:28.550Z,15.20
2018-05-16T03:47:28.204Z,14.90
2018-05-16T03:49:22.919Z,15.20
2018-05-16T03:50:20.444Z,16.60
2018-05-16T03:52:15.405Z,17.40
2018-05-16T03:53:14.966Z,14.40
2018-05-16T03:55:09.238Z,17.50
2018-05-16T03:56:08.225Z,17.40
2018-05-16T03:58:03.756Z,16.40
2018-05-16T03:59:04.082Z,20.40
2018-05-16T04:00:56.644Z,17.90
2018-05-16T04:01:56.916Z,16.30
2018-05-16T04:03:49.924Z,17.10
2018-05-16T04:04:49.590Z,18.20
2018-05-16T04:06:44.397Z,16.10
2018-05-16T04:07:42.427Z,16.80
2018-05-16T04:09:36.456Z,17.00
2018-05-16T04:10:35.310Z,18.10
2018-05-16T04:12:28.311Z,19.40
2018-05-16T04:13:28.201Z,19.20
2018-05-16T04:15:23.407Z,17.60
2018-05-16T04:16:22.314Z,19.80
2018-05-16T04:18:17.298Z,17.80
2018-05-16T04:19:16.844Z,18.00
2018-05-16T04:21:10.875Z,22.40
2018-05-16T04:22:09.761Z,19.00
2018-05-16T04:24:04.163Z,21.30
2018-05-16T04:25:03.723Z,18.80
2018-05-16T04:26:57.514Z,19.10
2018-05-16T04:27:57.487Z,18.80
2018-05-16T04:29:49.958Z,22.70
2018-05-16T04:30:49.077Z,18.60
2018-05-16T04:32:43.379Z,20.80
2018-05-16T04:33:43.130Z,20.10
2018-05-16T04:35:37.938Z,18.90
2018-05-16T04:36:37.030Z,20.20
2018-05-16T04:38:31.225Z,19.70
2018-05-16T04:41:24.036Z,20.00
2018-05-16T04:42:24.030Z,20.20
2018-05-16T04:44:18.397Z,20.20
2018-05-16T04:45:17.638Z,20.40
2018-05-16T04:47:11.074Z,20.40
2018-05-16T04:48:09.619Z,19.10
2018-05-16T04:50:03.881Z,18.80
2018-05-16T04:51:02.925Z,20.10
2018-05-16T04:52:57.333Z,20.40
2018-05-16T04:53:56.721Z,18.20
2018-05-16T04:55:50.693Z,18.70
2018-05-16T04:56:49.724Z,17.30
2018-05-16T04:58:44.580Z,17.00
2018-05-16T04:59:43.138Z,19.20
2018-05-16T05:01:36.894Z,18.10
2018-05-16T05:02:36.860Z,17.90
2018-05-16T05:04:30.215Z,19.40
2018-05-16T05:05:30.674Z,16.60
2018-05-16T05:07:23.567Z,17.70
2018-05-16T05:08:24.071Z,17.60
2018-05-16T05:10:17.093Z,15.60
2018-05-16T05:11:17.345Z,16.70
2018-05-16T05:13:11.229Z,16.60
2018-05-16T05:14:11.221Z,17.40
2018-05-16T05:16:05.918Z,15.00
2018-05-16T05:17:05.210Z,15.10
2018-05-16T05:18:58.216Z,15.80
2018-05-16T05:19:58.115Z,15.10
2018-05-16T05:21:53.034Z,15.80
2018-05-16T05:22:51.990Z,15.30
2018-05-16T05:24:44.811Z,17.70
2018-05-16T05:25:44.782Z,17.00
2018-05-16T05:27:39.136Z,18.50
2018-05-16T05:28:38.213Z,16.80
2018-05-16T05:30:31.612Z,18.30
2018-05-16T05:31:31.854Z,13.70
2018-05-16T05:33:25.008Z,17.60
2018-05-16T05:34:24.699Z,12.90
2018-05-16T05:36:18.383Z,13.40
2018-05-16T05:37:18.052Z,16.10
2018-05-16T05:39:14.019Z,18.50
2018-05-16T05:40:14.301Z,11.50
2018-05-16T05:42:07.675Z,14.30
2018-05-16T05:43:07.676Z,12.30
2018-05-16T05:45:01.499Z,10.40
2018-05-16T05:46:00.762Z,10.70
2018-05-16T05:47:55.125Z,10.00
2018-05-16T05:48:54.851Z,10.40
2018-05-16T05:50:47.943Z,10.80
2018-05-16T05:51:47.884Z,12.20
2018-05-16T05:53:41.303Z,9.70
2018-05-16T05:54:40.989Z,10.10
2018-05-16T05:56:34.928Z,12.50
2018-05-16T05:57:36.094Z,13.10
2018-05-16T05:59:27.742Z,11.70
2018-05-16T06:00:28.535Z,10.40
2018-05-16T06:02:21.651Z,10.90
2018-05-16T06:03:21.373Z,9.40
2018-05-16T06:05:14.286Z,11.80
2018-05-16T06:06:13.975Z,9.00
2018-05-16T06:08:08.993Z,10.30
2018-05-16T06:09:07.956Z,9.50
2018-05-16T06:11:01.742Z,11.00
2018-05-16T06:12:00.828Z,9.50
2018-05-16T06:13:55.125Z,9.20
2018-05-16T06:14:55.022Z,9.40
2018-05-16T06:16:48.567Z,9.90
2018-05-16T06:17:48.971Z,11.10
2018-05-16T06:19:41.556Z,10.60
2018-05-16T06:20:41.372Z,10.80
2018-05-16T06:22:34.794Z,9.50
2018-05-16T06:23:35.284Z,10.00
2018-05-16T06:25:28.789Z,10.60
2018-05-16T06:26:29.325Z,11.70
2018-05-16T06:28:22.223Z,9.20
2018-05-16T06:29:21.907Z,9.30
2018-05-16T06:31:16.205Z,10.20
2018-05-16T06:32:16.584Z,9.40
2018-05-16T06:34:09.410Z,10.20
2018-05-16T06:35:08.945Z,9.50
2018-05-16T06:37:02.894Z,10.10
2018-05-16T06:38:02.401Z,10.70
2018-05-16T06:39:55.435Z,10.00
2018-05-16T06:40:55.408Z,10.00
2018-05-16T06:42:49.348Z,11.50
2018-05-16T06:43:48.372Z,10.10
2018-05-16T06:45:42.827Z,11.20
2018-05-16T06:46:42.218Z,12.20
2018-05-16T06:48:35.595Z,9.70
2018-05-16T06:49:36.107Z,10.90
2018-05-16T06:51:29.351Z,8.80
2018-05-16T06:52:30.420Z,10.30
2018-05-16T06:54:23.865Z,9.60
2018-05-16T06:55:22.968Z,10.50
2018-05-16T06:57:16.174Z,9.10
2018-05-16T06:58:16.624Z,8.90
2018-05-16T07:00:09.550Z,8.20
2018-05-16T07:01:09.180Z,10.40
2018-05-16T07:03:03.432Z,10.20
2018-05-16T07:04:02.932Z,10.00
2018-05-16T07:05:56.842Z,12.00
2018-05-16T07:06:56.323Z,11.70
2018-05-16T07:08:49.793Z,10.50
2018-05-16T07:09:49.410Z,9.90
2018-05-16T07:11:45.795Z,9.70
2018-05-16T07:12:46.309Z,11.40
2018-05-16T07:15:22.193Z,11.10
2018-05-16T07:16:21.038Z,11.20
2018-05-16T07:18:14.859Z,11.20
2018-05-16T07:19:14.856Z,10.30
2018-05-16T07:21:08.803Z,10.00
2018-05-16T07:22:08.223Z,9.60
2018-05-16T07:24:01.649Z,9.20
2018-05-16T07:25:01.332Z,13.00
2018-05-16T07:26:55.094Z,9.00
2018-05-16T07:27:56.523Z,10.50
2018-05-16T07:29:48.446Z,9.70
2018-05-16T07:30:48.054Z,9.60
2018-05-16T07:32:42.484Z,10.10
2018-05-16T07:33:41.857Z,10.20
2018-05-16T07:35:35.246Z,9.70
2018-05-16T07:36:35.736Z,9.70
2018-05-16T07:38:29.186Z,12.80
2018-05-16T07:39:28.663Z,14.40
2018-05-16T07:41:21.982Z,9.90
2018-05-16T07:42:22.072Z,9.50
2018-05-16T07:44:15.445Z,9.40
2018-05-16T07:45:15.028Z,10.60
2018-05-16T07:47:09.482Z,11.90
2018-05-16T07:48:08.509Z,11.70
2018-05-16T07:50:03.799Z,9.20
2018-05-16T07:51:02.231Z,8.50
2018-05-16T07:52:55.649Z,8.00
2018-05-16T07:53:55.578Z,8.30
2018-05-16T07:55:49.010Z,8.70
2018-05-16T07:56:49.187Z,7.60
2018-05-16T07:58:42.410Z,12.60
2018-05-16T07:59:42.423Z,8.40
2018-05-16T08:01:35.817Z,9.10
2018-05-16T08:02:35.347Z,9.80
2018-05-16T08:04:29.188Z,10.10
2018-05-16T08:05:28.774Z,10.10
2018-05-16T08:07:22.596Z,9.30
2018-05-16T08:08:22.550Z,10.40
2018-05-16T08:10:15.931Z,9.10
2018-05-16T08:11:15.602Z,10.20
2018-05-16T08:13:09.323Z,10.10
2018-05-16T08:14:09.325Z,10.80
2018-05-16T08:16:02.770Z,10.40
2018-05-16T08:17:02.964Z,9.40
2018-05-16T08:18:57.250Z,9.10
2018-05-16T08:19:56.165Z,9.80
2018-05-16T08:22:04.256Z,9.90
2018-05-16T08:23:04.244Z,10.40
2018-05-16T08:24:58.115Z,10.50
2018-05-16T08:25:57.621Z,10.90
2018-05-16T08:27:51.163Z,10.80
2018-05-16T08:28:51.043Z,12.50
2018-05-16T08:30:44.982Z,10.10
2018-05-16T08:31:44.534Z,10.80
2018-05-16T08:33:38.380Z,11.50
2018-05-16T08:34:38.368Z,10.90
2018-05-16T08:36:31.854Z,10.70
2018-05-16T08:37:31.747Z,13.90
2018-05-16T08:39:25.101Z,11.50
2018-05-16T08:40:25.036Z,12.20
2018-05-16T08:42:18.547Z,11.70
2018-05-16T08:43:18.427Z,14.50
2018-05-16T08:45:11.955Z,13.80
2018-05-16T08:46:11.940Z,12.70
2018-05-16T08:48:05.307Z,11.10
2018-05-16T08:49:05.306Z,12.50
2018-05-16T08:50:58.695Z,16.90
2018-05-16T08:51:58.374Z,13.60
2018-05-16T08:53:52.153Z,13.20
2018-05-16T08:54:52.566Z,12.50
2018-05-16T08:56:53.582Z,13.10
2018-05-16T08:57:53.548Z,10.50
2018-05-16T08:59:45.598Z,10.20
2018-05-16T09:00:45.618Z,11.10
2018-05-16T09:02:39.026Z,10.80
2018-05-16T09:03:39.060Z,11.10
2018-05-16T09:05:32.410Z,11.90
2018-05-16T09:06:32.973Z,13.00
2018-05-16T09:08:25.828Z,15.30
2018-05-16T09:09:25.818Z,16.60
2018-05-16T09:11:19.014Z,11.50
2018-05-16T09:12:19.075Z,11.60
2018-05-16T09:14:12.400Z,12.20
2018-05-16T09:15:12.378Z,10.80
2018-05-16T09:17:05.774Z,10.80
2018-05-16T09:18:05.397Z,11.60
2018-05-16T09:19:59.131Z,13.60
2018-05-16T09:20:59.103Z,12.00
2018-05-16T09:22:52.543Z,8.90
2018-05-16T09:23:52.522Z,8.10
2018-05-16T09:25:45.957Z,9.90
2018-05-16T09:26:45.863Z,14.50
2018-05-16T09:28:39.363Z,10.70
2018-05-16T09:29:39.311Z,9.00
2018-05-16T09:31:32.680Z,12.90
2018-05-16T09:32:32.665Z,11.60
2018-05-16T09:34:26.122Z,12.70
2018-05-16T09:35:26.045Z,12.40
2018-05-16T09:37:19.559Z,10.20
2018-05-16T09:38:19.480Z,10.10
2018-05-16T09:40:12.934Z,13.00
2018-05-16T09:41:12.845Z,13.10
2018-05-16T09:43:06.267Z,11.00
2018-05-16T09:44:06.192Z,13.50
2018-05-16T09:45:59.669Z,11.60
2018-05-16T09:46:59.633Z,11.00
2018-05-16T09:48:53.569Z,11.20
2018-05-16T09:49:52.661Z,12.50
2018-05-16T09:51:46.456Z,15.60
2018-05-16T09:52:46.401Z,12.60
2018-05-16T09:54:39.782Z,13.70
2018-05-16T09:55:40.335Z,15.00
2018-05-16T09:57:33.709Z,12.40
2018-05-16T09:58:33.198Z,10.60
2018-05-16T10:00:26.626Z,12.70
2018-05-16T10:01:27.064Z,14.60
2018-05-16T10:03:19.584Z,13.10
2018-05-16T10:04:19.575Z,14.40
2018-05-16T10:06:13.016Z,10.00
2018-05-16T10:07:12.854Z,9.20
2018-05-16T10:09:07.403Z,12.40
2018-05-16T10:10:06.345Z,12.40
2018-05-16T10:12:14.365Z,11.90
2018-05-16T10:13:14.340Z,11.60
2018-05-16T10:15:08.898Z,12.10
2018-05-16T10:16:08.351Z,9.70
2018-05-16T10:18:01.770Z,9.20
2018-05-16T10:19:01.732Z,9.70
2018-05-16T10:20:55.668Z,11.00
2018-05-16T10:21:54.737Z,9.90
2018-05-16T10:23:49.215Z,10.20
2018-05-16T10:24:50.061Z,9.10
2018-05-16T10:26:42.494Z,11.60
2018-05-16T10:27:42.447Z,11.20
2018-05-16T10:29:36.354Z,11.40
2018-05-16T10:30:35.858Z,10.50
2018-05-16T10:32:29.683Z,11.20
2018-05-16T10:33:29.232Z,12.90
2018-05-16T10:35:22.688Z,13.10
2018-05-16T10:36:22.621Z,10.00
2018-05-16T10:38:16.027Z,9.60
2018-05-16T10:39:15.632Z,9.90
2018-05-16T10:41:09.894Z,9.40
2018-05-16T10:42:09.812Z,9.30
2018-05-16T10:44:02.808Z,11.80
2018-05-16T10:45:02.782Z,9.50
2018-05-16T10:46:56.649Z,11.40
2018-05-16T10:47:55.858Z,13.70
2018-05-16T10:49:49.500Z,10.20
2018-05-16T10:50:49.193Z,9.80
2018-05-16T10:52:57.205Z,13.00
2018-05-16T10:53:57.187Z,9.50
2018-05-16T10:55:51.569Z,14.90
2018-05-16T10:56:51.279Z,13.80
2018-05-16T10:58:44.422Z,23.00
2018-05-16T10:59:44.053Z,22.50
2018-05-16T11:01:37.812Z,20.80
2018-05-16T11:02:37.438Z,21.80
2018-05-16T11:04:30.294Z,28.30
2018-05-16T11:05:30.011Z,28.30
2018-05-16T11:07:23.650Z,25.30
2018-05-16T11:08:22.789Z,23.20
2018-05-16T11:10:16.076Z,25.20
2018-05-16T11:11:16.050Z,25.00
2018-05-16T11:13:09.335Z,26.50
2018-05-16T11:14:09.334Z,22.70
2018-05-16T11:16:02.313Z,23.30
2018-05-16T11:17:01.930Z,25.10
2018-05-16T11:18:55.656Z,27.40
2018-05-16T11:19:55.226Z,26.30
2018-05-16T11:21:49.048Z,28.90
2018-05-16T11:22:51.522Z,29.80
2018-05-16T11:24:41.791Z,24.30
2018-05-16T11:25:41.858Z,26.70
2018-05-16T11:27:35.265Z,25.30
2018-05-16T11:28:35.417Z,25.80
2018-05-16T11:30:45.764Z,27.40
2018-05-16T11:31:46.132Z,27.00
2018-05-16T11:33:39.193Z,26.20
2018-05-16T11:34:39.397Z,30.80
2018-05-16T11:36:31.807Z,30.80
2018-05-16T11:37:32.339Z,26.70
2018-05-16T11:39:39.871Z,35.10
2018-05-16T11:40:40.395Z,23.10
2018-05-16T11:42:33.821Z,26.30
2018-05-16T11:43:34.192Z,26.20
2018-05-16T11:45:27.716Z,25.80
2018-05-16T11:46:27.683Z,24.50
2018-05-16T11:48:22.087Z,22.10
2018-05-16T11:49:20.975Z,28.40
2018-05-16T11:51:14.081Z,22.80
2018-05-16T11:52:13.842Z,22.70
2018-05-16T11:54:06.753Z,22.30
2018-05-16T11:55:06.732Z,20.90
2018-05-16T11:57:00.687Z,26.30
2018-05-16T11:58:00.257Z,24.90
2018-05-16T11:59:53.032Z,18.80
2018-05-16T12:00:52.922Z,21.50
2018-05-16T12:02:46.462Z,21.10
2018-05-16T12:03:46.335Z,19.50
2018-05-16T12:05:39.236Z,20.70
2018-05-16T12:06:38.837Z,23.40
2018-05-16T12:08:34.935Z,21.20
2018-05-16T12:09:33.195Z,23.80
2018-05-16T12:11:27.668Z,25.20
2018-05-16T12:12:27.177Z,22.50
2018-05-16T12:14:20.978Z,24.30
2018-05-16T12:15:21.102Z,20.70
2018-05-16T12:17:14.366Z,24.00
2018-05-16T12:18:14.324Z,25.10
2018-05-16T12:20:07.759Z,25.70
2018-05-16T12:21:08.307Z,26.50
2018-05-16T12:23:01.165Z,28.60
2018-05-16T12:24:00.724Z,25.20
2018-05-16T12:25:54.446Z,26.80
2018-05-16T12:26:54.031Z,27.40
2018-05-16T12:28:47.901Z,21.20
2018-05-16T12:29:47.389Z,18.70
2018-05-16T12:31:41.907Z,15.90
2018-05-16T12:32:41.168Z,15.90
2018-05-16T12:34:34.571Z,18.60
2018-05-16T12:35:34.511Z,18.30
2018-05-16T12:37:28.455Z,15.90
2018-05-16T12:38:28.394Z,15.60
2018-05-16T12:40:21.305Z,13.30
2018-05-16T12:41:20.971Z,13.10
2018-05-16T12:43:14.725Z,15.10
2018-05-16T12:44:14.675Z,18.60
2018-05-16T12:46:08.052Z,15.50
2018-05-16T12:47:08.073Z,13.20
2018-05-16T12:49:00.937Z,13.00
2018-05-16T12:50:00.618Z,14.20
2018-05-16T12:51:53.904Z,13.70
2018-05-16T12:52:53.843Z,12.40
2018-05-16T12:54:48.051Z,11.00
2018-05-16T12:55:46.940Z,10.60
2018-05-16T12:57:40.105Z,10.20
2018-05-16T12:58:40.151Z,13.30
2018-05-16T13:00:33.536Z,12.70
2018-05-16T13:01:33.164Z,14.50
2018-05-16T13:03:26.451Z,11.90
2018-05-16T13:04:26.595Z,16.80
2018-05-16T13:06:18.992Z,10.90
2018-05-16T13:07:18.884Z,12.60
2018-05-16T13:09:12.105Z,15.80
2018-05-16T13:10:12.176Z,11.50
2018-05-16T13:12:05.570Z,12.60
2018-05-16T13:13:05.251Z,13.10
2018-05-16T13:14:58.887Z,11.70
2018-05-16T13:15:58.825Z,13.20
2018-05-16T13:17:53.045Z,12.40
2018-05-16T13:18:53.292Z,11.80
2018-05-16T13:20:49.261Z,11.80
2018-05-16T13:21:49.275Z,13.20
2018-05-16T13:23:42.616Z,11.20
2018-05-16T13:24:42.192Z,10.70
2018-05-16T13:26:40.481Z,11.20
2018-05-16T13:27:38.963Z,11.00
2018-05-16T13:29:31.777Z,11.10
2018-05-16T13:30:32.013Z,9.60
2018-05-16T13:32:27.027Z,8.10
2018-05-16T13:33:27.276Z,7.90
2018-05-16T13:35:21.767Z,9.70
2018-05-16T13:36:20.160Z,7.10
2018-05-16T13:38:14.557Z,7.00
2018-05-16T13:39:13.724Z,8.10
2018-05-16T13:41:06.954Z,9.00
2018-05-16T13:42:06.973Z,10.20
2018-05-16T13:44:00.313Z,10.20
2018-05-16T13:45:00.535Z,6.60
2018-05-16T13:46:53.684Z,8.60
2018-05-16T13:47:53.630Z,9.40
2018-05-16T13:49:46.565Z,7.90
2018-05-16T13:50:46.237Z,9.80
2018-05-16T13:52:40.977Z,7.50
2018-05-16T13:53:42.479Z,8.60
2018-05-16T13:55:34.461Z,8.10
2018-05-16T13:56:33.933Z,7.60
2018-05-16T13:58:27.339Z,9.50
2018-05-16T13:59:27.297Z,11.60
2018-05-16T14:01:20.749Z,9.50
2018-05-16T14:03:34.547Z,7.60
2018-05-16T14:04:33.724Z,6.80
2018-05-16T14:06:28.134Z,10.90
2018-05-16T14:07:27.164Z,9.80
2018-05-16T14:09:20.949Z,10.40
2018-05-16T14:10:20.922Z,10.40
2018-05-16T14:12:14.860Z,9.10
2018-05-16T14:13:15.813Z,6.90
2018-05-16T14:15:07.507Z,8.10
2018-05-16T14:16:07.945Z,9.50
2018-05-16T14:18:01.400Z,9.80
2018-05-16T14:19:01.335Z,11.10
2018-05-16T14:22:36.452Z,9.20
2018-05-16T14:23:36.313Z,10.50
2018-05-16T14:25:29.803Z,11.60
2018-05-16T14:26:29.726Z,15.90
2018-05-16T14:28:23.175Z,13.80
2018-05-16T14:29:23.628Z,17.10
2018-05-16T14:31:17.155Z,9.50
2018-05-16T14:32:15.937Z,10.30
2018-05-16T14:34:09.636Z,9.50
2018-05-16T14:35:08.748Z,9.10
2018-05-16T14:37:03.098Z,9.70
2018-05-16T14:38:02.505Z,13.00
2018-05-16T14:39:56.846Z,10.10
2018-05-16T14:40:55.588Z,11.00
2018-05-16T14:42:49.930Z,9.90
2018-05-16T14:43:50.202Z,10.20
2018-05-16T14:45:42.723Z,6.80
2018-05-16T14:46:42.418Z,10.60
2018-05-16T14:48:36.009Z,9.70
2018-05-16T14:49:35.936Z,9.00
2018-05-16T14:51:29.481Z,11.20
2018-05-16T14:52:30.799Z,8.00
2018-05-16T14:54:22.873Z,9.30
2018-05-16T14:55:22.849Z,8.00
2018-05-16T14:57:16.340Z,12.80
2018-05-16T14:58:17.582Z,10.80
2018-05-16T15:00:09.592Z,8.30
2018-05-16T15:01:10.517Z,9.70
2018-05-16T15:03:02.945Z,9.30
2018-05-16T15:04:02.661Z,11.00
2018-05-16T15:05:56.861Z,10.20
2018-05-16T15:06:57.284Z,8.10
2018-05-16T15:08:50.611Z,10.60
2018-05-16T15:11:03.653Z,11.00
2018-05-16T15:12:03.578Z,10.40
2018-05-16T15:13:56.465Z,11.80
2018-05-16T15:14:56.224Z,12.90
2018-05-16T15:16:49.836Z,7.80
2018-05-16T15:17:50.031Z,10.20
2018-05-16T15:19:43.287Z,7.10
2018-05-16T15:20:43.157Z,9.00
2018-05-16T15:22:36.751Z,8.50
2018-05-16T15:23:36.695Z,9.50
2018-05-16T15:25:29.795Z,8.40
2018-05-16T15:26:29.729Z,9.20
2018-05-16T15:28:23.473Z,8.40
2018-05-16T15:29:23.064Z,9.90
2018-05-16T15:31:16.493Z,11.50
2018-05-16T15:32:16.485Z,8.60
2018-05-16T15:34:10.328Z,8.50
2018-05-16T15:35:10.274Z,9.60
2018-05-16T15:37:04.732Z,8.20
2018-05-16T15:38:04.710Z,9.70
2018-05-16T15:39:57.616Z,9.70
2018-05-16T15:40:57.636Z,8.10
2018-05-16T15:42:50.915Z,9.40
2018-05-16T15:43:51.171Z,9.00
2018-05-16T15:45:44.642Z,7.80
2018-05-16T15:46:44.440Z,9.10
2018-05-16T15:48:37.702Z,9.40
2018-05-16T15:49:37.501Z,10.10
2018-05-16T15:51:31.643Z,8.50
2018-05-16T15:52:31.445Z,8.90
2018-05-16T15:54:24.435Z,8.00
2018-05-16T15:55:24.528Z,8.30
2018-05-16T15:57:17.621Z,7.40
2018-05-16T15:58:17.493Z,9.20
2018-05-16T16:00:16.937Z,10.20
2018-05-16T16:01:13.590Z,9.00
2018-05-16T16:03:06.730Z,9.10
2018-05-16T16:04:06.479Z,11.10
2018-05-16T16:05:59.567Z,9.20
2018-05-16T16:06:59.263Z,8.40
2018-05-16T16:08:52.480Z,7.80
2018-05-16T16:09:52.146Z,8.00
2018-05-16T16:11:45.881Z,8.60
2018-05-16T16:12:45.549Z,9.90
2018-05-16T16:14:39.160Z,11.40
2018-05-16T16:15:39.125Z,9.80
2018-05-16T16:17:32.666Z,8.20
2018-05-16T16:18:32.790Z,10.20
2018-05-16T16:20:25.683Z,9.50
2018-05-16T16:21:25.655Z,10.40
2018-05-16T16:23:18.624Z,11.80
2018-05-16T16:24:18.890Z,10.40
2018-05-16T16:26:11.674Z,9.20
2018-05-16T16:27:11.497Z,10.40
2018-05-16T16:29:04.967Z,10.40
2018-05-16T16:30:04.625Z,9.50
2018-05-16T16:31:58.388Z,11.20
2018-05-16T16:32:58.056Z,20.70
2018-05-16T16:34:51.820Z,10.00
2018-05-16T16:35:51.409Z,31.90
2018-05-16T16:37:45.824Z,18.20
2018-05-16T16:38:44.777Z,21.80
2018-05-16T16:40:38.191Z,21.90
2018-05-16T16:41:38.480Z,19.50
2018-05-16T16:43:31.918Z,13.80
2018-05-16T16:44:31.819Z,11.90
2018-05-16T16:46:25.159Z,16.70
2018-05-16T16:47:24.855Z,19.20
2018-05-16T16:49:18.562Z,20.50
2018-05-16T16:50:18.306Z,13.80
2018-05-16T16:52:11.728Z,15.70
2018-05-16T16:53:11.605Z,23.70
2018-05-16T16:55:04.566Z,27.30
2018-05-16T16:56:04.478Z,18.70
2018-05-16T16:57:58.218Z,14.10
2018-05-16T16:58:58.393Z,15.70
2018-05-16T17:00:52.165Z,14.50
2018-05-16T17:01:51.800Z,14.80
2018-05-16T17:03:45.672Z,17.30
2018-05-16T17:04:45.524Z,13.50
2018-05-16T17:06:38.856Z,16.10
2018-05-16T17:07:38.552Z,14.00
2018-05-16T17:09:31.762Z,15.50
2018-05-16T17:10:31.749Z,15.30
2018-05-16T17:12:26.603Z,11.00
2018-05-16T17:13:24.815Z,14.40
2018-05-16T17:15:18.516Z,15.00
2018-05-16T17:16:17.663Z,19.20
2018-05-16T17:18:11.475Z,12.00
2018-05-16T17:19:11.304Z,12.70
2018-05-16T17:21:04.462Z,16.00
2018-05-16T17:22:04.373Z,19.40
2018-05-16T17:23:58.134Z,13.90
2018-05-16T17:24:58.153Z,13.20
2018-05-16T17:26:52.062Z,17.50
2018-05-16T17:27:51.170Z,17.10
2018-05-16T17:29:44.534Z,15.10
2018-05-16T17:30:44.523Z,14.60
2018-05-16T17:32:37.529Z,18.10
2018-05-16T17:33:37.981Z,17.40
2018-05-16T17:35:31.142Z,16.60
2018-05-16T17:36:31.165Z,16.60
2018-05-16T17:38:24.508Z,15.70
2018-05-16T17:39:24.388Z,17.50
2018-05-16T17:41:18.920Z,21.20
2018-05-16T17:42:19.342Z,15.20
2018-05-16T17:44:11.760Z,14.20
2018-05-16T17:45:11.686Z,14.50
2018-05-16T17:47:05.142Z,18.70
2018-05-16T17:48:05.112Z,16.70
2018-05-16T17:49:57.992Z,14.40
2018-05-16T17:50:57.885Z,16.60
2018-05-16T17:52:51.421Z,17.50
2018-05-16T17:53:51.452Z,17.50
2018-05-16T17:55:44.200Z,17.50
2018-05-16T17:56:43.872Z,14.90
2018-05-16T17:58:37.118Z,15.80
2018-05-16T17:59:36.737Z,15.20
2018-05-16T18:01:30.445Z,16.20
2018-05-16T18:02:30.467Z,16.80
2018-05-16T18:04:23.949Z,24.20
2018-05-16T18:05:23.538Z,19.20
2018-05-16T18:07:16.411Z,21.50
2018-05-16T18:08:16.333Z,18.90
2018-05-16T18:10:09.202Z,18.90
2018-05-16T18:11:09.407Z,17.20
2018-05-16T18:13:03.127Z,20.90
2018-05-16T18:14:02.792Z,19.70
2018-05-16T18:15:56.002Z,20.30
2018-05-16T18:16:55.723Z,21.90
2018-05-16T18:18:49.382Z,24.00
2018-05-16T18:19:48.990Z,20.10
2018-05-16T18:21:44.936Z,21.50
2018-05-16T18:22:45.287Z,22.10
2018-05-16T18:24:39.748Z,28.40
2018-05-16T18:25:39.584Z,22.10
2018-05-16T18:27:32.932Z,24.20
2018-05-16T18:28:34.460Z,24.10
2018-05-16T18:30:26.503Z,24.90
2018-05-16T18:31:26.442Z,25.90
2018-05-16T18:33:19.727Z,25.10
2018-05-16T18:34:19.750Z,26.10
2018-05-16T18:36:13.167Z,27.10
2018-05-16T18:37:12.817Z,27.10
2018-05-16T18:39:07.026Z,29.50
2018-05-16T18:40:06.364Z,31.80
2018-05-16T18:42:01.606Z,28.20
2018-05-16T18:42:59.548Z,29.60
2018-05-16T18:44:53.294Z,28.10
2018-05-16T18:45:53.199Z,28.90
2018-05-16T18:47:46.623Z,28.80
2018-05-16T18:48:46.263Z,31.30
2018-05-16T18:50:40.490Z,33.10